sensor_id;sensor_type;location;lat;lon;timestamp;pressure;altitude;pressure_sealevel;temperature;humidity
51530;BME280;37613;51.788;21.582;2022-08-19T00:01:31;99829.52;;;20.16;79.88
51530;BME280;37613;51.788;21.582;2022-08-19T00:05:35;99828.23;;;20.07;80.03
51530;BME280;37613;51.788;21.582;2022-08-19T00:09:37;99825.77;;;20.01;80.46
51530;BME280;37613;51.788;21.582;2022-08-19T00:13:39;99828.40;;;19.94;80.54
51530;BME280;37613;51.788;21.582;2022-08-19T00:17:43;99824.71;;;19.89;80.78
51530;BME280;37613;51.788;21.582;2022-08-19T00:21:45;99819.04;;;19.83;80.75
51530;BME280;37613;51.788;21.582;2022-08-19T00:25:47;99819.20;;;19.80;80.97
51530;BME280;37613;51.788;21.582;2022-08-19T00:29:49;99824.44;;;19.77;81.12
51530;BME280;37613;51.788;21.582;2022-08-19T00:33:51;99817.86;;;19.77;81.25
51530;BME280;37613;51.788;21.582;2022-08-19T00:37:53;99812.55;;;19.78;81.76
51530;BME280;37613;51.788;21.582;2022-08-19T00:41:55;99818.36;;;19.77;81.69
51530;BME280;37613;51.788;21.582;2022-08-19T00:45:59;99817.17;;;19.72;81.87
51530;BME280;37613;51.788;21.582;2022-08-19T00:50:00;99816.84;;;19.69;82.03
51530;BME280;37613;51.788;21.582;2022-08-19T00:54:03;99823.34;;;19.67;81.95
51530;BME280;37613;51.788;21.582;2022-08-19T00:58:12;99826.18;;;19.66;82.06
51530;BME280;37613;51.788;21.582;2022-08-19T01:02:16;99820.59;;;19.65;81.99
51530;BME280;37613;51.788;21.582;2022-08-19T01:06:18;99825.25;;;19.65;82.17
51530;BME280;37613;51.788;21.582;2022-08-19T01:10:23;99830.41;;;19.66;82.44
51530;BME280;37613;51.788;21.582;2022-08-19T01:14:27;99830.88;;;19.67;82.28
51530;BME280;37613;51.788;21.582;2022-08-19T01:18:30;99826.89;;;19.66;82.44
51530;BME280;37613;51.788;21.582;2022-08-19T01:22:47;99825.25;;;19.64;82.65
51530;BME280;37613;51.788;21.582;2022-08-19T01:26:49;99823.52;;;19.59;82.68
51530;BME280;37613;51.788;21.582;2022-08-19T01:30:53;99825.66;;;19.56;82.78
51530;BME280;37613;51.788;21.582;2022-08-19T01:34:56;99830.69;;;19.50;83.33
51530;BME280;37613;51.788;21.582;2022-08-19T01:38:58;99839.06;;;19.43;83.36
51530;BME280;37613;51.788;21.582;2022-08-19T01:43:02;99837.27;;;19.38;83.38
51530;BME280;37613;51.788;21.582;2022-08-19T01:47:05;99838.66;;;19.36;83.52
51530;BME280;37613;51.788;21.582;2022-08-19T01:51:09;99831.91;;;19.33;83.75
51530;BME280;37613;51.788;21.582;2022-08-19T01:55:14;99827.94;;;19.30;83.92
51530;BME280;37613;51.788;21.582;2022-08-19T01:59:19;99827.88;;;19.28;83.97
51530;BME280;37613;51.788;21.582;2022-08-19T02:03:23;99834.77;;;19.24;84.09
51530;BME280;37613;51.788;21.582;2022-08-19T02:07:24;99835.92;;;19.20;84.10
51530;BME280;37613;51.788;21.582;2022-08-19T02:11:33;99830.23;;;19.15;84.28
51530;BME280;37613;51.788;21.582;2022-08-19T02:15:36;99823.39;;;19.10;84.42
51530;BME280;37613;51.788;21.582;2022-08-19T02:19:39;99817.89;;;19.06;84.46
51530;BME280;37613;51.788;21.582;2022-08-19T02:23:42;99811.59;;;19.03;84.74
51530;BME280;37613;51.788;21.582;2022-08-19T02:27:44;99806.33;;;19.00;84.79
51530;BME280;37613;51.788;21.582;2022-08-19T02:31:46;99806.39;;;19.01;85.17
51530;BME280;37613;51.788;21.582;2022-08-19T02:35:48;99799.83;;;19.01;85.38
51530;BME280;37613;51.788;21.582;2022-08-19T02:39:50;99803.88;;;19.00;85.35
51530;BME280;37613;51.788;21.582;2022-08-19T02:43:52;99803.48;;;19.00;85.31
51530;BME280;37613;51.788;21.582;2022-08-19T02:47:53;99804.14;;;18.99;85.22
51530;BME280;37613;51.788;21.582;2022-08-19T02:51:56;99805.73;;;18.99;85.41
51530;BME280;37613;51.788;21.582;2022-08-19T02:55:58;99813.78;;;18.98;85.31
51530;BME280;37613;51.788;21.582;2022-08-19T03:00:00;99814.93;;;18.97;85.51
51530;BME280;37613;51.788;21.582;2022-08-19T03:04:05;99812.65;;;18.94;85.53
51530;BME280;37613;51.788;21.582;2022-08-19T03:08:09;99812.02;;;18.90;85.84
51530;BME280;37613;51.788;21.582;2022-08-19T03:12:13;99813.88;;;18.88;85.68
51530;BME280;37613;51.788;21.582;2022-08-19T03:16:16;99811.85;;;18.86;85.81
51530;BME280;37613;51.788;21.582;2022-08-19T03:20:19;99807.77;;;18.85;85.89
51530;BME280;37613;51.788;21.582;2022-08-19T03:24:21;99809.27;;;18.83;86.00
51530;BME280;37613;51.788;21.582;2022-08-19T03:28:23;99806.81;;;18.80;86.04
51530;BME280;37613;51.788;21.582;2022-08-19T03:32:25;99802.11;;;18.80;86.11
51530;BME280;37613;51.788;21.582;2022-08-19T03:36:27;99811.02;;;18.81;86.21
51530;BME280;37613;51.788;21.582;2022-08-19T03:40:29;99818.84;;;18.84;86.23
51530;BME280;37613;51.788;21.582;2022-08-19T03:44:31;99815.34;;;18.87;86.46
51530;BME280;37613;51.788;21.582;2022-08-19T03:48:41;99811.99;;;18.91;86.55
51530;BME280;37613;51.788;21.582;2022-08-19T03:52:48;99813.60;;;18.97;86.50
51530;BME280;37613;51.788;21.582;2022-08-19T03:56:53;99815.36;;;19.05;86.66
51530;BME280;37613;51.788;21.582;2022-08-19T04:00:56;99818.00;;;19.12;86.59
51530;BME280;37613;51.788;21.582;2022-08-19T04:04:57;99818.46;;;19.23;86.60
51530;BME280;37613;51.788;21.582;2022-08-19T04:09:01;99820.67;;;19.37;86.76
51530;BME280;37613;51.788;21.582;2022-08-19T04:13:04;99824.30;;;19.81;87.28
51530;BME280;37613;51.788;21.582;2022-08-19T04:17:08;99823.54;;;20.29;87.31
51530;BME280;37613;51.788;21.582;2022-08-19T04:21:16;99820.61;;;20.77;87.07
51530;BME280;37613;51.788;21.582;2022-08-19T04:25:19;99817.54;;;21.60;87.09
51530;BME280;37613;51.788;21.582;2022-08-19T04:29:23;99818.75;;;22.30;86.27
51530;BME280;37613;51.788;21.582;2022-08-19T04:33:26;99813.17;;;23.07;85.36
51530;BME280;37613;51.788;21.582;2022-08-19T04:37:30;99814.62;;;23.56;82.58
51530;BME280;37613;51.788;21.582;2022-08-19T04:41:35;99817.84;;;24.04;82.11
51530;BME280;37613;51.788;21.582;2022-08-19T04:45:56;99816.88;;;24.77;80.43
51530;BME280;37613;51.788;21.582;2022-08-19T04:49:58;99818.02;;;25.44;79.29
51530;BME280;37613;51.788;21.582;2022-08-19T04:54:03;99815.92;;;26.20;78.48
51530;BME280;37613;51.788;21.582;2022-08-19T04:58:05;99814.88;;;26.79;76.82
51530;BME280;37613;51.788;21.582;2022-08-19T05:02:09;99820.45;;;27.41;75.10
51530;BME280;37613;51.788;21.582;2022-08-19T05:06:14;99826.05;;;28.31;74.21
51530;BME280;37613;51.788;21.582;2022-08-19T05:10:17;99838.77;;;29.33;71.36
51530;BME280;37613;51.788;21.582;2022-08-19T05:14:18;99843.84;;;30.20;69.79
51530;BME280;37613;51.788;21.582;2022-08-19T05:18:22;99841.48;;;30.86;69.53
51530;BME280;37613;51.788;21.582;2022-08-19T05:22:54;99835.35;;;31.19;66.00
51530;BME280;37613;51.788;21.582;2022-08-19T05:26:56;99836.79;;;31.16;62.93
51530;BME280;37613;51.788;21.582;2022-08-19T05:30:58;99836.50;;;31.35;63.28
51530;BME280;37613;51.788;21.582;2022-08-19T05:35:00;99831.27;;;31.83;61.89
51530;BME280;37613;51.788;21.582;2022-08-19T05:39:03;99833.88;;;32.11;61.84
51530;BME280;37613;51.788;21.582;2022-08-19T05:43:06;99841.45;;;32.50;59.04
51530;BME280;37613;51.788;21.582;2022-08-19T05:47:11;99850.05;;;33.16;58.73
51530;BME280;37613;51.788;21.582;2022-08-19T05:51:13;99858.84;;;33.37;54.37
51530;BME280;37613;51.788;21.582;2022-08-19T05:55:16;99859.27;;;32.73;53.60
51530;BME280;37613;51.788;21.582;2022-08-19T05:59:19;99855.94;;;31.73;53.98
51530;BME280;37613;51.788;21.582;2022-08-19T06:03:22;99850.25;;;31.10;55.08
51530;BME280;37613;51.788;21.582;2022-08-19T06:07:25;99845.77;;;30.20;54.11
51530;BME280;37613;51.788;21.582;2022-08-19T06:11:34;99840.31;;;29.49;54.71
51530;BME280;37613;51.788;21.582;2022-08-19T06:15:37;99835.67;;;29.17;55.49
51530;BME280;37613;51.788;21.582;2022-08-19T06:19:39;99827.38;;;29.10;56.28
51530;BME280;37613;51.788;21.582;2022-08-19T06:23:42;99823.27;;;29.00;56.09
51530;BME280;37613;51.788;21.582;2022-08-19T06:27:44;99828.06;;;28.53;56.55
51530;BME280;37613;51.788;21.582;2022-08-19T06:31:48;99836.64;;;28.16;57.06
51530;BME280;37613;51.788;21.582;2022-08-19T06:35:51;99840.16;;;27.87;57.68
51530;BME280;37613;51.788;21.582;2022-08-19T06:45:09;99843.88;;;28.32;58.64
51530;BME280;37613;51.788;21.582;2022-08-19T06:49:11;99841.04;;;28.61;58.14
51530;BME280;37613;51.788;21.582;2022-08-19T06:53:15;99841.89;;;28.77;58.05
51530;BME280;37613;51.788;21.582;2022-08-19T06:57:19;99846.70;;;28.98;57.70
51530;BME280;37613;51.788;21.582;2022-08-19T07:01:21;99844.55;;;29.21;57.84
51530;BME280;37613;51.788;21.582;2022-08-19T07:05:22;99847.11;;;29.42;56.70
51530;BME280;37613;51.788;21.582;2022-08-19T07:09:26;99846.77;;;29.52;56.94
51530;BME280;37613;51.788;21.582;2022-08-19T07:13:28;99849.17;;;29.63;56.67
51530;BME280;37613;51.788;21.582;2022-08-19T07:17:29;99851.54;;;29.64;55.78
51530;BME280;37613;51.788;21.582;2022-08-19T07:21:32;99851.97;;;29.63;56.00
51530;BME280;37613;51.788;21.582;2022-08-19T07:25:36;99850.13;;;29.62;56.00
51530;BME280;37613;51.788;21.582;2022-08-19T07:29:38;99856.75;;;29.79;55.89
51530;BME280;37613;51.788;21.582;2022-08-19T07:33:41;99862.86;;;30.00;56.18
51530;BME280;37613;51.788;21.582;2022-08-19T07:37:45;99862.52;;;30.35;55.94
51530;BME280;37613;51.788;21.582;2022-08-19T07:41:48;99863.50;;;30.63;55.26
51530;BME280;37613;51.788;21.582;2022-08-19T07:45:53;99868.49;;;30.72;54.00
51530;BME280;37613;51.788;21.582;2022-08-19T07:49:58;99871.91;;;30.62;53.44
51530;BME280;37613;51.788;21.582;2022-08-19T07:54:00;99872.40;;;30.56;54.15
51530;BME280;37613;51.788;21.582;2022-08-19T07:58:02;99870.56;;;30.51;53.52
51530;BME280;37613;51.788;21.582;2022-08-19T08:02:06;99868.46;;;30.47;53.33
51530;BME280;37613;51.788;21.582;2022-08-19T08:06:10;99868.93;;;30.53;53.21
51530;BME280;37613;51.788;21.582;2022-08-19T08:10:31;99867.30;;;30.30;51.93
51530;BME280;37613;51.788;21.582;2022-08-19T08:14:41;99861.58;;;30.25;52.18
51530;BME280;37613;51.788;21.582;2022-08-19T08:18:43;99861.57;;;30.26;52.90
51530;BME280;37613;51.788;21.582;2022-08-19T08:22:47;99858.67;;;30.42;52.31
51530;BME280;37613;51.788;21.582;2022-08-19T08:27:08;99859.39;;;30.67;52.05
51530;BME280;37613;51.788;21.582;2022-08-19T08:31:09;99853.54;;;30.85;52.20
51530;BME280;37613;51.788;21.582;2022-08-19T08:35:15;99848.52;;;30.93;51.42
51530;BME280;37613;51.788;21.582;2022-08-19T08:39:20;99849.05;;;30.84;51.04
51530;BME280;37613;51.788;21.582;2022-08-19T08:47:37;99857.00;;;30.74;51.12
51530;BME280;37613;51.788;21.582;2022-08-19T08:51:51;99852.67;;;30.75;50.72
51530;BME280;37613;51.788;21.582;2022-08-19T08:55:54;99854.96;;;30.77;50.89
51530;BME280;37613;51.788;21.582;2022-08-19T08:59:57;99856.00;;;30.78;50.61
51530;BME280;37613;51.788;21.582;2022-08-19T09:04:06;99858.73;;;30.91;50.80
51530;BME280;37613;51.788;21.582;2022-08-19T09:08:15;99865.02;;;30.91;50.42
51530;BME280;37613;51.788;21.582;2022-08-19T09:16:29;99857.73;;;31.19;51.37
51530;BME280;37613;51.788;21.582;2022-08-19T09:20:32;99859.48;;;31.29;50.04
51530;BME280;37613;51.788;21.582;2022-08-19T09:24:33;99853.13;;;31.38;50.77
51530;BME280;37613;51.788;21.582;2022-08-19T09:28:37;99843.11;;;31.58;50.92
51530;BME280;37613;51.788;21.582;2022-08-19T09:32:38;99860.00;;;31.84;49.58
51530;BME280;37613;51.788;21.582;2022-08-19T09:36:43;99861.08;;;31.85;48.58
51530;BME280;37613;51.788;21.582;2022-08-19T09:40:44;99867.84;;;31.68;47.99
51530;BME280;37613;51.788;21.582;2022-08-19T09:44:46;99878.00;;;31.62;48.19
51530;BME280;37613;51.788;21.582;2022-08-19T09:48:49;99882.64;;;31.77;49.00
51530;BME280;37613;51.788;21.582;2022-08-19T09:52:52;99884.41;;;32.04;48.86
51530;BME280;37613;51.788;21.582;2022-08-19T09:56:58;99886.78;;;32.08;47.90
51530;BME280;37613;51.788;21.582;2022-08-19T10:01:03;99879.52;;;32.03;47.27
51530;BME280;37613;51.788;21.582;2022-08-19T10:05:06;99876.54;;;31.96;47.46
51530;BME280;37613;51.788;21.582;2022-08-19T10:09:26;99873.88;;;32.09;46.98
51530;BME280;37613;51.788;21.582;2022-08-19T10:13:30;99875.02;;;32.13;46.44
51530;BME280;37613;51.788;21.582;2022-08-19T10:17:33;99866.23;;;32.30;47.10
51530;BME280;37613;51.788;21.582;2022-08-19T10:21:36;99865.73;;;32.31;46.03
51530;BME280;37613;51.788;21.582;2022-08-19T10:25:38;99861.52;;;32.30;46.53
51530;BME280;37613;51.788;21.582;2022-08-19T10:29:40;99855.20;;;32.46;46.30
51530;BME280;37613;51.788;21.582;2022-08-19T10:33:43;99851.33;;;32.42;45.79
51530;BME280;37613;51.788;21.582;2022-08-19T10:37:45;99848.85;;;32.37;44.85
51530;BME280;37613;51.788;21.582;2022-08-19T10:41:46;99851.75;;;32.31;45.01
51530;BME280;37613;51.788;21.582;2022-08-19T10:45:52;99846.78;;;32.28;45.08
51530;BME280;37613;51.788;21.582;2022-08-19T10:49:56;99837.41;;;32.27;44.47
51530;BME280;37613;51.788;21.582;2022-08-19T10:54:17;99842.16;;;32.22;44.38
51530;BME280;37613;51.788;21.582;2022-08-19T10:58:21;99839.98;;;32.17;43.48
51530;BME280;37613;51.788;21.582;2022-08-19T11:02:27;99833.54;;;32.14;43.41
51530;BME280;37613;51.788;21.582;2022-08-19T11:06:33;99835.90;;;32.13;43.64
51530;BME280;37613;51.788;21.582;2022-08-19T11:10:35;99827.98;;;32.14;43.60
51530;BME280;37613;51.788;21.582;2022-08-19T11:14:38;99828.12;;;32.24;44.39
51530;BME280;37613;51.788;21.582;2022-08-19T11:18:42;99831.20;;;32.30;43.58
51530;BME280;37613;51.788;21.582;2022-08-19T11:22:45;99832.79;;;32.18;42.64
51530;BME280;37613;51.788;21.582;2022-08-19T11:26:49;99825.28;;;32.08;42.92
51530;BME280;37613;51.788;21.582;2022-08-19T11:30:51;99823.77;;;32.05;42.88
51530;BME280;37613;51.788;21.582;2022-08-19T11:34:53;99823.73;;;32.07;42.59
51530;BME280;37613;51.788;21.582;2022-08-19T11:38:56;99819.13;;;32.10;42.64
51530;BME280;37613;51.788;21.582;2022-08-19T11:42:57;99810.91;;;32.26;43.38
51530;BME280;37613;51.788;21.582;2022-08-19T11:46:59;99808.15;;;32.34;42.35
51530;BME280;37613;51.788;21.582;2022-08-19T11:51:10;99815.40;;;32.46;42.43
51530;BME280;37613;51.788;21.582;2022-08-19T11:55:13;99810.16;;;32.45;41.43
51530;BME280;37613;51.788;21.582;2022-08-19T11:59:15;99800.52;;;32.35;41.48
51530;BME280;37613;51.788;21.582;2022-08-19T12:03:17;99803.08;;;32.34;41.51
51530;BME280;37613;51.788;21.582;2022-08-19T12:07:20;99792.88;;;32.41;41.78
51530;BME280;37613;51.788;21.582;2022-08-19T12:11:23;99789.25;;;32.53;41.36
51530;BME280;37613;51.788;21.582;2022-08-19T12:15:26;99789.09;;;32.47;40.82
51530;BME280;37613;51.788;21.582;2022-08-19T12:19:30;99787.80;;;32.45;40.65
51530;BME280;37613;51.788;21.582;2022-08-19T12:23:31;99785.16;;;32.39;40.49
51530;BME280;37613;51.788;21.582;2022-08-19T12:27:34;99779.87;;;32.39;40.51
51530;BME280;37613;51.788;21.582;2022-08-19T12:31:36;99782.79;;;32.43;40.20
51530;BME280;37613;51.788;21.582;2022-08-19T12:35:43;99775.44;;;32.35;39.55
51530;BME280;37613;51.788;21.582;2022-08-19T12:39:45;99769.08;;;32.36;40.22
51530;BME280;37613;51.788;21.582;2022-08-19T12:43:48;99766.58;;;32.47;40.50
51530;BME280;37613;51.788;21.582;2022-08-19T12:47:51;99767.96;;;32.54;40.26
51530;BME280;37613;51.788;21.582;2022-08-19T12:51:55;99763.52;;;32.46;39.52
51530;BME280;37613;51.788;21.582;2022-08-19T12:55:58;99761.51;;;32.39;39.30
51530;BME280;37613;51.788;21.582;2022-08-19T13:00:08;99758.39;;;32.30;38.92
51530;BME280;37613;51.788;21.582;2022-08-19T13:04:15;99758.52;;;32.31;39.45
51530;BME280;37613;51.788;21.582;2022-08-19T13:08:18;99754.68;;;32.39;39.59
51530;BME280;37613;51.788;21.582;2022-08-19T13:12:19;99752.37;;;32.34;38.66
51530;BME280;37613;51.788;21.582;2022-08-19T13:16:22;99748.28;;;32.24;37.68
51530;BME280;37613;51.788;21.582;2022-08-19T13:20:25;99737.25;;;32.13;37.81
51530;BME280;37613;51.788;21.582;2022-08-19T13:24:28;99743.55;;;32.19;38.47
51530;BME280;37613;51.788;21.582;2022-08-19T13:28:30;99744.66;;;32.21;38.62
51530;BME280;37613;51.788;21.582;2022-08-19T13:32:52;99741.95;;;32.22;38.70
51530;BME280;37613;51.788;21.582;2022-08-19T13:37:12;99732.12;;;32.15;39.01
51530;BME280;37613;51.788;21.582;2022-08-19T13:41:14;99732.17;;;32.21;39.33
51530;BME280;37613;51.788;21.582;2022-08-19T13:45:19;99721.69;;;32.26;38.94
51530;BME280;37613;51.788;21.582;2022-08-19T13:49:21;99727.22;;;32.22;38.61
51530;BME280;37613;51.788;21.582;2022-08-19T13:53:24;99729.11;;;32.15;38.65
51530;BME280;37613;51.788;21.582;2022-08-19T13:57:26;99736.64;;;32.02;38.55
51530;BME280;37613;51.788;21.582;2022-08-19T14:01:28;99731.17;;;31.99;39.37
51530;BME280;37613;51.788;21.582;2022-08-19T14:05:32;99729.68;;;31.97;39.60
51530;BME280;37613;51.788;21.582;2022-08-19T14:09:34;99728.18;;;31.95;39.50
51530;BME280;37613;51.788;21.582;2022-08-19T14:13:36;99727.05;;;31.88;39.20
51530;BME280;37613;51.788;21.582;2022-08-19T14:17:40;99723.67;;;31.74;39.28
51530;BME280;37613;51.788;21.582;2022-08-19T14:21:42;99723.20;;;31.71;39.59
51530;BME280;37613;51.788;21.582;2022-08-19T14:25:44;99734.98;;;31.70;39.80
51530;BME280;37613;51.788;21.582;2022-08-19T14:29:46;99739.73;;;31.69;39.36
51530;BME280;37613;51.788;21.582;2022-08-19T14:33:48;99751.54;;;31.66;39.73
51530;BME280;37613;51.788;21.582;2022-08-19T14:37:52;99751.63;;;31.67;39.97
51530;BME280;37613;51.788;21.582;2022-08-19T14:41:57;99750.74;;;31.60;39.72
51530;BME280;37613;51.788;21.582;2022-08-19T14:46:00;99745.09;;;31.49;40.11
51530;BME280;37613;51.788;21.582;2022-08-19T14:55:19;99750.25;;;31.47;40.42
51530;BME280;37613;51.788;21.582;2022-08-19T14:59:21;99753.55;;;31.43;40.77
51530;BME280;37613;51.788;21.582;2022-08-19T15:03:23;99757.97;;;31.38;40.76
51530;BME280;37613;51.788;21.582;2022-08-19T15:07:25;99761.20;;;31.24;40.78
51530;BME280;37613;51.788;21.582;2022-08-19T15:11:28;99762.74;;;31.13;41.07
51530;BME280;37613;51.788;21.582;2022-08-19T15:15:30;99770.86;;;31.05;41.92
51530;BME280;37613;51.788;21.582;2022-08-19T15:19:32;99762.60;;;30.97;42.13
51530;BME280;37613;51.788;21.582;2022-08-19T15:23:37;99761.89;;;30.93;42.60
51530;BME280;37613;51.788;21.582;2022-08-19T15:27:39;99760.59;;;30.88;42.36
51530;BME280;37613;51.788;21.582;2022-08-19T15:31:41;99753.05;;;30.78;42.48
51530;BME280;37613;51.788;21.582;2022-08-19T15:35:43;99748.14;;;30.73;42.86
51530;BME280;37613;51.788;21.582;2022-08-19T15:39:46;99747.11;;;30.70;43.27
51530;BME280;37613;51.788;21.582;2022-08-19T15:43:59;99746.73;;;30.61;43.24
51530;BME280;37613;51.788;21.582;2022-08-19T15:48:03;99746.69;;;30.46;43.28
51530;BME280;37613;51.788;21.582;2022-08-19T15:52:05;99743.11;;;30.34;43.57
51530;BME280;37613;51.788;21.582;2022-08-19T15:56:08;99738.00;;;30.27;43.71
51530;BME280;37613;51.788;21.582;2022-08-19T16:00:10;99735.83;;;30.16;43.80
51530;BME280;37613;51.788;21.582;2022-08-19T16:04:31;99740.48;;;30.05;44.09
51530;BME280;37613;51.788;21.582;2022-08-19T16:09:02;99747.73;;;29.99;44.24
51530;BME280;37613;51.788;21.582;2022-08-19T16:13:05;99753.93;;;29.93;44.30
51530;BME280;37613;51.788;21.582;2022-08-19T16:17:06;99752.17;;;29.83;44.54
51530;BME280;37613;51.788;21.582;2022-08-19T16:21:13;99741.25;;;29.72;44.85
51530;BME280;37613;51.788;21.582;2022-08-19T16:25:17;99732.20;;;29.63;45.04
51530;BME280;37613;51.788;21.582;2022-08-19T16:29:19;99736.06;;;29.54;45.31
51530;BME280;37613;51.788;21.582;2022-08-19T16:33:23;99739.02;;;29.42;45.46
51530;BME280;37613;51.788;21.582;2022-08-19T16:37:25;99734.16;;;29.31;45.90
51530;BME280;37613;51.788;21.582;2022-08-19T16:41:27;99734.30;;;29.19;46.23
51530;BME280;37613;51.788;21.582;2022-08-19T16:45:30;99731.96;;;29.07;46.28
51530;BME280;37613;51.788;21.582;2022-08-19T16:49:32;99732.87;;;28.96;46.39
51530;BME280;37613;51.788;21.582;2022-08-19T16:53:36;99733.15;;;28.87;46.59
51530;BME280;37613;51.788;21.582;2022-08-19T16:57:39;99734.88;;;28.75;46.60
51530;BME280;37613;51.788;21.582;2022-08-19T17:01:41;99737.65;;;28.62;46.98
51530;BME280;37613;51.788;21.582;2022-08-19T17:05:46;99735.64;;;28.49;47.25
51530;BME280;37613;51.788;21.582;2022-08-19T17:09:48;99736.05;;;28.40;47.37
51530;BME280;37613;51.788;21.582;2022-08-19T17:13:52;99736.07;;;28.29;47.71
51530;BME280;37613;51.788;21.582;2022-08-19T17:17:58;99728.64;;;28.18;47.95
51530;BME280;37613;51.788;21.582;2022-08-19T17:22:00;99718.92;;;28.06;48.47
51530;BME280;37613;51.788;21.582;2022-08-19T17:26:02;99719.48;;;27.93;48.68
51530;BME280;37613;51.788;21.582;2022-08-19T17:30:06;99728.24;;;27.80;49.00
51530;BME280;37613;51.788;21.582;2022-08-19T17:34:08;99732.45;;;27.68;49.39
51530;BME280;37613;51.788;21.582;2022-08-19T17:38:20;99732.80;;;27.56;49.57
51530;BME280;37613;51.788;21.582;2022-08-19T17:42:23;99739.06;;;27.44;49.73
51530;BME280;37613;51.788;21.582;2022-08-19T17:46:25;99745.70;;;27.35;49.76
51530;BME280;37613;51.788;21.582;2022-08-19T17:50:28;99750.61;;;27.25;50.03
51530;BME280;37613;51.788;21.582;2022-08-19T17:54:31;99752.30;;;27.15;50.09
51530;BME280;37613;51.788;21.582;2022-08-19T17:58:32;99763.05;;;27.03;50.62
51530;BME280;37613;51.788;21.582;2022-08-19T18:02:42;99759.09;;;26.95;50.49
51530;BME280;37613;51.788;21.582;2022-08-19T18:06:43;99764.92;;;26.86;50.64
51530;BME280;37613;51.788;21.582;2022-08-19T18:10:45;99770.94;;;26.77;50.65
51530;BME280;37613;51.788;21.582;2022-08-19T18:14:47;99780.17;;;26.70;50.96
51530;BME280;37613;51.788;21.582;2022-08-19T18:18:49;99786.02;;;26.61;51.32
51530;BME280;37613;51.788;21.582;2022-08-19T18:22:51;99793.65;;;26.53;51.54
51530;BME280;37613;51.788;21.582;2022-08-19T18:26:53;99803.71;;;26.45;51.48
51530;BME280;37613;51.788;21.582;2022-08-19T18:30:54;99800.02;;;26.37;51.63
51530;BME280;37613;51.788;21.582;2022-08-19T18:35:00;99797.90;;;26.29;51.72
51530;BME280;37613;51.788;21.582;2022-08-19T18:39:03;99794.13;;;26.19;51.87
51530;BME280;37613;51.788;21.582;2022-08-19T18:43:24;99797.51;;;26.10;51.79
51530;BME280;37613;51.788;21.582;2022-08-19T18:47:44;99799.30;;;26.01;52.33
51530;BME280;37613;51.788;21.582;2022-08-19T18:52:05;99804.98;;;25.92;52.31
51530;BME280;37613;51.788;21.582;2022-08-19T18:56:09;99798.59;;;25.84;52.48
51530;BME280;37613;51.788;21.582;2022-08-19T19:00:12;99801.20;;;25.76;52.47
51530;BME280;37613;51.788;21.582;2022-08-19T19:04:16;99795.17;;;25.69;52.54
51530;BME280;37613;51.788;21.582;2022-08-19T19:08:19;99789.07;;;25.61;52.58
51530;BME280;37613;51.788;21.582;2022-08-19T19:12:21;99788.21;;;25.53;53.07
51530;BME280;37613;51.788;21.582;2022-08-19T19:16:30;99786.23;;;25.46;53.27
51530;BME280;37613;51.788;21.582;2022-08-19T19:20:32;99785.05;;;25.37;53.42
51530;BME280;37613;51.788;21.582;2022-08-19T19:24:34;99777.45;;;25.27;53.73
51530;BME280;37613;51.788;21.582;2022-08-19T19:28:39;99775.71;;;25.18;53.87
51530;BME280;37613;51.788;21.582;2022-08-19T19:32:46;99771.96;;;25.09;54.26
51530;BME280;37613;51.788;21.582;2022-08-19T19:36:48;99768.50;;;25.01;54.31
51530;BME280;37613;51.788;21.582;2022-08-19T19:40:50;99760.79;;;24.93;54.61
51530;BME280;37613;51.788;21.582;2022-08-19T19:44:54;99758.69;;;24.87;54.84
51530;BME280;37613;51.788;21.582;2022-08-19T19:48:56;99770.63;;;24.80;54.87
51530;BME280;37613;51.788;21.582;2022-08-19T19:52:58;99786.12;;;24.76;55.00
51530;BME280;37613;51.788;21.582;2022-08-19T19:57:00;99793.04;;;24.71;54.73
51530;BME280;37613;51.788;21.582;2022-08-19T20:01:03;99799.42;;;24.67;55.29
51530;BME280;37613;51.788;21.582;2022-08-19T20:05:08;99804.68;;;24.61;55.91
51530;BME280;37613;51.788;21.582;2022-08-19T20:09:12;99803.35;;;24.55;56.04
51530;BME280;37613;51.788;21.582;2022-08-19T20:13:16;99798.41;;;24.50;56.02
51530;BME280;37613;51.788;21.582;2022-08-19T20:17:18;99801.64;;;24.47;56.34
51530;BME280;37613;51.788;21.582;2022-08-19T20:21:21;99809.16;;;24.43;56.54
51530;BME280;37613;51.788;21.582;2022-08-19T20:25:24;99820.17;;;24.39;56.90
51530;BME280;37613;51.788;21.582;2022-08-19T20:29:26;99813.44;;;24.35;56.96
51530;BME280;37613;51.788;21.582;2022-08-19T20:33:28;99817.23;;;24.31;57.16
51530;BME280;37613;51.788;21.582;2022-08-19T20:37:31;99820.63;;;24.26;57.41
51530;BME280;37613;51.788;21.582;2022-08-19T20:41:34;99819.88;;;24.21;57.26
51530;BME280;37613;51.788;21.582;2022-08-19T20:45:36;99818.89;;;24.15;58.17
51530;BME280;37613;51.788;21.582;2022-08-19T20:49:38;99825.01;;;24.11;57.89
51530;BME280;37613;51.788;21.582;2022-08-19T20:53:41;99821.12;;;24.06;57.79
51530;BME280;37613;51.788;21.582;2022-08-19T20:57:43;99826.20;;;24.02;58.29
51530;BME280;37613;51.788;21.582;2022-08-19T21:01:47;99826.40;;;23.96;58.03
51530;BME280;37613;51.788;21.582;2022-08-19T21:05:52;99830.61;;;23.92;58.63
51530;BME280;37613;51.788;21.582;2022-08-19T21:09:54;99828.34;;;23.86;58.40
51530;BME280;37613;51.788;21.582;2022-08-19T21:13:57;99831.36;;;23.81;58.64
51530;BME280;37613;51.788;21.582;2022-08-19T21:17:59;99838.36;;;23.74;59.52
51530;BME280;37613;51.788;21.582;2022-08-19T21:22:01;99845.24;;;23.70;59.11
51530;BME280;37613;51.788;21.582;2022-08-19T21:26:04;99836.63;;;23.66;59.42
51530;BME280;37613;51.788;21.582;2022-08-19T21:30:07;99835.27;;;23.61;59.64
51530;BME280;37613;51.788;21.582;2022-08-19T21:34:09;99837.63;;;23.58;59.48